createdAt,value
2023-06-20T00:01:40.097Z,9.37
2023-06-20T00:04:07.056Z,9.97
2023-06-20T00:06:34.059Z,9.40
2023-06-20T00:09:01.123Z,10.00
2023-06-20T00:11:28.190Z,9.60
2023-06-20T00:13:55.108Z,9.03
2023-06-20T00:16:22.352Z,11.60
2023-06-20T00:18:55.456Z,11.33
2023-06-20T00:21:27.093Z,10.00
2023-06-20T00:23:55.399Z,10.07
2023-06-20T00:26:23.039Z,8.73
2023-06-20T00:28:53.208Z,9.97
2023-06-20T00:31:20.273Z,9.40
2023-06-20T00:33:47.345Z,10.40
2023-06-20T00:36:14.334Z,10.07
2023-06-20T00:38:41.290Z,10.60
2023-06-20T00:41:08.332Z,10.23
2023-06-20T00:43:35.289Z,10.43
2023-06-20T00:46:02.315Z,9.80
2023-06-20T00:48:29.537Z,10.50
2023-06-20T00:50:57.759Z,9.67
2023-06-20T00:53:24.702Z,9.80
2023-06-20T00:55:52.585Z,10.20
2023-06-20T00:58:19.537Z,10.77
2023-06-20T01:00:46.619Z,10.10
2023-06-20T01:03:14.875Z,9.50
2023-06-20T01:05:51.675Z,9.40
2023-06-20T01:08:35.254Z,8.70
2023-06-20T01:11:21.640Z,9.20
2023-06-20T01:14:18.369Z,8.37
2023-06-20T01:17:01.574Z,9.10
2023-06-20T01:20:13.911Z,9.40
2023-06-20T01:23:03.564Z,9.77
2023-06-20T01:25:40.025Z,8.87
2023-06-20T01:28:34.501Z,9.10
2023-06-20T01:31:12.523Z,9.00
2023-06-20T01:33:55.041Z,9.50
2023-06-20T01:36:23.471Z,10.13
2023-06-20T01:38:57.524Z,10.70
2023-06-20T01:41:26.250Z,9.97
2023-06-20T01:43:57.262Z,10.23
2023-06-20T01:46:25.867Z,10.30
2023-06-20T01:48:54.152Z,10.17
2023-06-20T01:51:22.030Z,9.97
2023-06-20T01:53:50.396Z,11.03
2023-06-20T01:56:19.478Z,10.20
2023-06-20T01:58:47.959Z,11.27
2023-06-20T02:01:15.797Z,10.70
2023-06-20T02:03:44.389Z,10.93
2023-06-20T02:06:14.280Z,10.63
2023-06-20T02:08:42.006Z,10.57
2023-06-20T02:11:10.487Z,11.00
2023-06-20T02:13:38.232Z,9.73
2023-06-20T02:16:10.600Z,11.10
2023-06-20T02:18:37.666Z,10.17
2023-06-20T02:21:08.321Z,10.20
2023-06-20T02:23:37.580Z,9.50
2023-06-20T02:26:11.378Z,10.30
2023-06-20T02:28:46.980Z,9.33
2023-06-20T02:31:22.681Z,8.90
2023-06-20T02:33:55.108Z,9.87
2023-06-20T02:36:26.765Z,8.50
2023-06-20T02:38:56.862Z,8.33
2023-06-20T02:41:24.708Z,9.40
2023-06-20T02:43:52.184Z,8.97
2023-06-20T02:46:59.440Z,9.00
2023-06-20T02:49:58.142Z,9.00
2023-06-20T02:53:02.968Z,8.40
2023-06-20T02:55:42.414Z,8.47
2023-06-20T02:58:13.891Z,8.50
2023-06-20T03:00:49.560Z,9.60
2023-06-20T03:03:44.723Z,8.43
2023-06-20T03:06:15.817Z,9.30
2023-06-20T03:08:45.792Z,9.03
2023-06-20T03:11:12.786Z,10.10
2023-06-20T03:13:40.221Z,9.67
2023-06-20T03:16:10.524Z,8.80
2023-06-20T03:18:38.622Z,7.70
2023-06-20T03:21:13.148Z,7.53
2023-06-20T03:23:51.056Z,9.10
2023-06-20T03:26:17.974Z,9.23
2023-06-20T03:28:45.055Z,10.00
2023-06-20T03:31:12.187Z,12.17
2023-06-20T03:33:39.189Z,10.43
2023-06-20T03:36:07.020Z,10.23
2023-06-20T03:38:33.969Z,13.13
2023-06-20T03:41:01.629Z,11.33
2023-06-20T03:43:28.736Z,10.10
2023-06-20T03:45:55.676Z,10.00
2023-06-20T03:48:22.810Z,9.70
2023-06-20T03:50:49.874Z,9.40
2023-06-20T03:53:16.894Z,8.80
2023-06-20T03:55:44.195Z,10.00
2023-06-20T03:58:11.314Z,9.47
2023-06-20T04:00:39.714Z,7.40
2023-06-20T04:03:06.834Z,9.40
2023-06-20T04:05:34.276Z,10.30
2023-06-20T04:08:02.211Z,9.00
2023-06-20T04:10:29.496Z,9.63
2023-06-20T04:12:56.664Z,10.07
2023-06-20T04:15:23.838Z,8.37
2023-06-20T04:17:51.248Z,8.60
2023-06-20T04:20:18.188Z,9.43
2023-06-20T04:22:47.753Z,9.60
2023-06-20T04:25:15.845Z,8.20
2023-06-20T04:27:43.760Z,7.80
2023-06-20T04:30:11.353Z,8.20
2023-06-20T04:32:38.844Z,8.50
2023-06-20T04:35:08.561Z,9.80
2023-06-20T04:37:35.501Z,10.30
2023-06-20T04:40:02.468Z,10.00
2023-06-20T04:42:29.459Z,8.23
2023-06-20T04:44:57.824Z,8.87
2023-06-20T04:47:24.879Z,8.40
2023-06-20T04:49:51.972Z,9.33
2023-06-20T04:52:18.985Z,10.53
2023-06-20T04:54:46.065Z,11.13
2023-06-20T04:57:13.125Z,10.10
2023-06-20T04:59:40.266Z,11.63
2023-06-20T05:02:07.638Z,10.13
2023-06-20T05:04:34.796Z,10.90
2023-06-20T05:07:01.906Z,11.50
2023-06-20T05:09:29.403Z,13.90
2023-06-20T05:11:59.706Z,11.80
2023-06-20T05:14:29.489Z,12.23
2023-06-20T05:16:56.584Z,11.60
2023-06-20T05:19:23.549Z,12.27
2023-06-20T05:21:50.769Z,13.70
2023-06-20T05:24:18.168Z,13.50
2023-06-20T05:26:45.268Z,12.87
2023-06-20T05:29:12.392Z,13.60
2023-06-20T05:31:42.865Z,12.60
2023-06-20T05:34:09.930Z,13.70
2023-06-20T05:36:36.939Z,12.20
2023-06-20T05:39:05.055Z,12.77
2023-06-20T05:41:32.028Z,12.43
2023-06-20T05:43:59.013Z,13.40
2023-06-20T05:46:26.201Z,13.40
2023-06-20T05:48:53.261Z,12.07
2023-06-20T05:51:20.247Z,14.30
2023-06-20T05:53:47.248Z,13.70
2023-06-20T05:56:14.991Z,13.43
2023-06-20T05:58:43.067Z,13.07
2023-06-20T06:01:10.305Z,13.73
2023-06-20T06:03:37.429Z,13.00
2023-06-20T06:06:05.042Z,14.57
2023-06-20T06:08:34.898Z,11.60
2023-06-20T06:11:01.945Z,13.87
2023-06-20T06:13:29.272Z,12.37
2023-06-20T06:16:00.645Z,13.47
2023-06-20T06:18:28.285Z,13.60
2023-06-20T06:20:55.245Z,12.83
2023-06-20T06:23:22.201Z,14.40
2023-06-20T06:25:49.168Z,12.90
2023-06-20T06:28:16.385Z,13.17
2023-06-20T06:30:43.425Z,13.60
2023-06-20T06:33:11.430Z,12.13
2023-06-20T06:35:39.174Z,13.87
2023-06-20T06:38:07.077Z,12.70
2023-06-20T06:40:34.295Z,13.97
2023-06-20T06:43:01.304Z,13.00
2023-06-20T06:45:28.503Z,12.63
2023-06-20T06:47:56.130Z,11.40
2023-06-20T06:50:23.303Z,12.40
2023-06-20T06:52:50.661Z,12.77
2023-06-20T06:55:17.865Z,12.83
2023-06-20T06:57:44.861Z,12.50
2023-06-20T07:00:15.668Z,11.20
2023-06-20T07:02:44.345Z,12.50
2023-06-20T07:05:12.200Z,12.37
2023-06-20T07:07:39.344Z,13.10
2023-06-20T07:10:07.310Z,11.73
2023-06-20T07:12:34.375Z,12.33
2023-06-20T07:15:01.502Z,11.77
2023-06-20T07:17:28.661Z,13.00
2023-06-20T07:19:55.747Z,11.90
2023-06-20T07:22:23.293Z,12.80
2023-06-20T07:24:53.291Z,13.10
2023-06-20T07:27:22.214Z,13.27
2023-06-20T07:29:49.170Z,12.53
2023-06-20T07:32:16.754Z,11.10
2023-06-20T07:34:44.079Z,12.33
2023-06-20T07:37:11.301Z,9.90
2023-06-20T07:39:44.059Z,11.03
2023-06-20T07:42:11.548Z,11.50
2023-06-20T07:44:38.548Z,10.60
2023-06-20T07:47:06.270Z,10.80
2023-06-20T07:49:33.261Z,11.10
2023-06-20T07:52:00.153Z,10.63
2023-06-20T07:54:27.365Z,10.77
2023-06-20T07:56:54.453Z,9.87
2023-06-20T07:59:21.471Z,11.20
2023-06-20T08:01:48.596Z,10.30
2023-06-20T08:04:15.834Z,12.33
2023-06-20T08:06:44.349Z,10.80
2023-06-20T08:09:11.866Z,11.33
2023-06-20T08:11:39.318Z,10.90
2023-06-20T08:14:06.308Z,10.47
2023-06-20T08:16:33.764Z,9.97
2023-06-20T08:19:00.887Z,10.43
2023-06-20T08:21:27.925Z,9.57
2023-06-20T08:23:55.073Z,10.50
2023-06-20T08:26:22.076Z,9.40
2023-06-20T08:28:49.123Z,10.50
2023-06-20T08:31:17.117Z,10.80
2023-06-20T08:33:44.074Z,10.07
2023-06-20T08:36:12.037Z,10.00
2023-06-20T08:38:39.567Z,10.17
2023-06-20T08:41:10.725Z,10.57
2023-06-20T08:43:37.738Z,8.80
2023-06-20T08:46:04.783Z,9.23
2023-06-20T08:48:31.813Z,11.40
2023-06-20T08:50:58.831Z,9.87
2023-06-20T08:53:27.129Z,9.10
2023-06-20T08:55:54.795Z,9.47
2023-06-20T08:58:23.547Z,11.83
2023-06-20T09:00:50.784Z,9.13
2023-06-20T09:03:18.122Z,8.70
2023-06-20T09:05:48.352Z,9.00
2023-06-20T09:08:16.911Z,8.77
2023-06-20T09:10:46.345Z,8.20
2023-06-20T09:13:16.619Z,7.97
2023-06-20T09:15:43.694Z,8.40
2023-06-20T09:18:15.515Z,7.67
2023-06-20T09:20:44.577Z,7.33
2023-06-20T09:23:12.256Z,7.97
2023-06-20T09:25:41.113Z,8.20
2023-06-20T09:28:16.933Z,7.93
2023-06-20T09:30:46.506Z,7.63
2023-06-20T09:33:15.352Z,7.83
2023-06-20T09:35:43.084Z,7.23
2023-06-20T09:38:10.570Z,7.30
2023-06-20T09:40:47.119Z,7.50
2023-06-20T09:43:14.223Z,7.47
2023-06-20T09:45:41.378Z,7.43
2023-06-20T09:48:14.754Z,7.10
2023-06-20T09:50:43.521Z,6.90
2023-06-20T09:53:59.482Z,6.63
2023-06-20T09:56:29.984Z,6.17
2023-06-20T09:58:59.288Z,6.67
2023-06-20T10:01:27.482Z,5.90
2023-06-20T10:03:56.338Z,5.97
2023-06-20T10:06:23.914Z,5.57
2023-06-20T10:08:52.084Z,5.33
2023-06-20T10:11:19.358Z,5.80
2023-06-20T10:13:47.442Z,5.63
2023-06-20T10:16:14.545Z,6.00
2023-06-20T10:18:42.720Z,5.90
2023-06-20T10:21:14.987Z,5.83
2023-06-20T10:23:43.040Z,5.80
2023-06-20T10:26:11.666Z,6.10
2023-06-20T10:28:40.452Z,5.87
2023-06-20T10:31:08.037Z,6.37
2023-06-20T10:33:44.583Z,6.70
2023-06-20T10:36:18.462Z,5.80
2023-06-20T10:38:54.756Z,6.00
2023-06-20T10:41:27.864Z,5.50
2023-06-20T10:44:02.486Z,5.97
2023-06-20T10:46:38.752Z,5.67
2023-06-20T10:49:08.650Z,5.60
2023-06-20T10:51:56.657Z,5.90
2023-06-20T10:54:23.654Z,5.83
2023-06-20T10:56:50.795Z,5.80
2023-06-20T10:59:20.242Z,5.80
2023-06-20T11:01:47.438Z,5.90
2023-06-20T11:04:17.493Z,6.13
2023-06-20T11:06:44.882Z,6.07
2023-06-20T11:09:24.157Z,5.97
2023-06-20T11:11:52.255Z,5.67
2023-06-20T11:14:24.086Z,5.60
2023-06-20T11:16:54.832Z,6.30
2023-06-20T11:19:34.956Z,5.87
2023-06-20T11:22:03.889Z,6.37
2023-06-20T11:24:32.735Z,5.53
2023-06-20T11:27:16.385Z,5.43
2023-06-20T11:29:44.136Z,5.43
2023-06-20T11:32:12.561Z,6.17
2023-06-20T11:34:57.660Z,5.87
2023-06-20T11:37:24.979Z,5.97
2023-06-20T11:39:53.683Z,6.30
2023-06-20T11:42:20.734Z,6.20
2023-06-20T11:44:47.740Z,6.00
2023-06-20T11:47:14.734Z,6.60
2023-06-20T11:49:42.987Z,5.93
2023-06-20T11:52:11.212Z,6.53
2023-06-20T11:54:52.113Z,5.93
2023-06-20T11:57:32.253Z,5.50
2023-06-20T12:00:05.559Z,5.70
2023-06-20T12:02:32.950Z,6.17
2023-06-20T12:05:02.413Z,6.10
2023-06-20T12:07:31.411Z,5.33
2023-06-20T12:10:07.936Z,5.80
2023-06-20T12:12:35.212Z,5.80
2023-06-20T12:15:02.218Z,5.13
2023-06-20T12:17:29.266Z,5.43
2023-06-20T12:19:56.277Z,6.17
2023-06-20T12:22:24.243Z,5.43
2023-06-20T12:24:51.253Z,5.00
2023-06-20T12:27:18.641Z,5.13
2023-06-20T12:29:46.845Z,5.50
2023-06-20T12:32:13.932Z,5.30
2023-06-20T12:34:40.974Z,5.33
2023-06-20T12:37:08.086Z,4.60
2023-06-20T12:39:36.393Z,4.70
2023-06-20T12:42:03.529Z,4.97
2023-06-20T12:44:30.474Z,5.53
2023-06-20T12:46:57.466Z,5.20
2023-06-20T12:49:24.558Z,4.67
2023-06-20T12:51:51.496Z,4.67
2023-06-20T12:54:18.578Z,4.90
2023-06-20T12:56:46.348Z,4.80
2023-06-20T12:59:13.350Z,5.10
2023-06-20T13:01:40.326Z,5.63
2023-06-20T13:04:07.307Z,4.83
2023-06-20T13:06:36.585Z,4.67
2023-06-20T13:09:04.361Z,4.80
2023-06-20T13:11:32.263Z,4.70
2023-06-20T13:13:59.277Z,4.83
2023-06-20T13:16:26.500Z,5.10
2023-06-20T13:19:01.304Z,3.97
2023-06-20T13:21:30.413Z,4.20
2023-06-20T13:24:09.033Z,4.00
2023-06-20T13:26:37.033Z,4.40
2023-06-20T13:29:03.986Z,4.27
2023-06-20T13:31:30.962Z,4.43
2023-06-20T13:33:58.636Z,4.90
2023-06-20T13:36:27.880Z,4.50
2023-06-20T13:38:55.210Z,4.20
2023-06-20T13:41:22.253Z,4.40
2023-06-20T13:43:50.609Z,4.40
2023-06-20T13:46:17.601Z,3.80
2023-06-20T13:48:44.678Z,4.50
2023-06-20T13:51:11.607Z,4.10
2023-06-20T13:53:38.590Z,4.43
2023-06-20T13:56:05.848Z,5.03
2023-06-20T13:58:32.874Z,4.20
2023-06-20T14:01:00.060Z,4.03
2023-06-20T14:03:27.272Z,4.00
2023-06-20T14:05:57.734Z,4.13
2023-06-20T14:08:25.897Z,3.93
2023-06-20T14:10:52.905Z,4.40
2023-06-20T14:13:19.821Z,4.00
2023-06-20T14:15:46.850Z,4.10
2023-06-20T14:18:13.814Z,4.63
2023-06-20T14:20:41.358Z,4.60
2023-06-20T14:23:08.333Z,4.40
2023-06-20T14:25:35.322Z,4.47
2023-06-20T14:28:02.489Z,3.97
2023-06-20T14:30:29.746Z,4.67
2023-06-20T14:32:57.026Z,4.43
2023-06-20T14:35:24.036Z,4.37
2023-06-20T14:37:51.133Z,4.30
2023-06-20T14:40:18.168Z,4.87
2023-06-20T14:42:45.477Z,4.23
2023-06-20T14:45:12.545Z,4.20
2023-06-20T14:47:40.059Z,3.97
2023-06-20T14:50:07.636Z,4.30
2023-06-20T14:52:34.562Z,3.70
2023-06-20T14:55:03.677Z,4.23
2023-06-20T14:57:30.715Z,4.13
2023-06-20T14:59:57.814Z,4.00
2023-06-20T15:02:24.967Z,4.30
2023-06-20T15:04:52.514Z,3.90
2023-06-20T15:07:19.926Z,4.10
2023-06-20T15:09:47.017Z,4.30
2023-06-20T15:12:14.435Z,3.90
2023-06-20T15:14:41.483Z,4.03
2023-06-20T15:17:08.850Z,3.93
2023-06-20T15:19:37.867Z,4.23
2023-06-20T15:22:05.148Z,4.47
2023-06-20T15:24:34.410Z,4.13
2023-06-20T15:27:01.716Z,4.53
2023-06-20T15:29:28.714Z,4.33
2023-06-20T15:31:55.934Z,4.50
2023-06-20T15:34:23.254Z,4.10
2023-06-20T15:36:50.753Z,4.80
2023-06-20T15:39:18.006Z,4.77
2023-06-20T15:41:48.356Z,4.50
2023-06-20T15:44:16.431Z,4.80
2023-06-20T15:46:53.308Z,4.47
2023-06-20T15:49:23.632Z,4.23
2023-06-20T15:51:50.648Z,4.50
2023-06-20T15:54:17.627Z,4.37
2023-06-20T15:56:44.630Z,4.90
2023-06-20T15:59:13.804Z,5.13
2023-06-20T16:01:41.926Z,3.97
2023-06-20T16:04:11.377Z,4.80
2023-06-20T16:06:38.428Z,4.47
2023-06-20T16:09:06.854Z,4.47
2023-06-20T16:11:34.838Z,4.80
2023-06-20T16:14:03.364Z,4.40
2023-06-20T16:16:31.174Z,4.27
2023-06-20T16:18:58.422Z,4.40
2023-06-20T16:21:27.790Z,4.43
2023-06-20T16:23:54.712Z,4.50
2023-06-20T16:26:22.782Z,4.50
2023-06-20T16:28:49.900Z,4.70
2023-06-20T16:31:19.096Z,4.57
2023-06-20T16:33:50.026Z,4.60
2023-06-20T16:36:19.056Z,4.60
2023-06-20T16:38:46.442Z,5.10
2023-06-20T16:41:13.577Z,4.47
2023-06-20T16:43:41.462Z,5.20
2023-06-20T16:46:10.689Z,3.90
2023-06-20T16:48:38.352Z,4.20
2023-06-20T16:51:10.282Z,4.93
2023-06-20T16:53:38.638Z,5.00
2023-06-20T16:56:06.695Z,5.00
2023-06-20T16:58:33.653Z,4.73
2023-06-20T17:01:00.692Z,4.53
2023-06-20T17:03:27.742Z,4.40
2023-06-20T17:05:55.351Z,4.57
2023-06-20T17:08:24.395Z,5.30
2023-06-20T17:10:51.432Z,4.90
2023-06-20T17:13:18.756Z,5.50
2023-06-20T17:15:45.824Z,5.90
2023-06-20T17:18:14.710Z,5.53
2023-06-20T17:20:41.917Z,5.33
2023-06-20T17:23:08.995Z,5.40
2023-06-20T17:25:37.019Z,5.10
2023-06-20T17:28:04.194Z,5.23
2023-06-20T17:30:31.211Z,6.07
2023-06-20T17:33:00.244Z,5.57
2023-06-20T17:35:27.451Z,5.13
2023-06-20T17:37:54.593Z,5.30
2023-06-20T17:40:22.556Z,5.37
2023-06-20T17:42:49.519Z,5.13
2023-06-20T17:45:16.561Z,5.70
2023-06-20T17:47:44.612Z,5.40
2023-06-20T17:50:15.891Z,6.40
2023-06-20T17:52:44.491Z,6.70
2023-06-20T17:55:11.470Z,6.40
2023-06-20T17:57:54.617Z,6.87
2023-06-20T18:00:26.467Z,7.20
2023-06-20T18:02:53.938Z,6.40
2023-06-20T18:05:21.000Z,7.00
2023-06-20T18:07:48.054Z,6.50
2023-06-20T18:10:15.080Z,7.33
2023-06-20T18:12:45.585Z,6.83
2023-06-20T18:15:12.664Z,7.43
2023-06-20T18:17:39.650Z,6.80
2023-06-20T18:20:07.874Z,6.80
2023-06-20T18:22:35.449Z,7.10
2023-06-20T18:25:02.403Z,6.80
2023-06-20T18:27:29.496Z,6.13
2023-06-20T18:29:56.509Z,6.90
2023-06-20T18:32:25.519Z,6.50
2023-06-20T18:34:52.556Z,6.00
2023-06-20T18:37:19.508Z,6.40
2023-06-20T18:39:48.638Z,5.90
2023-06-20T18:42:16.768Z,6.63
2023-06-20T18:44:43.815Z,6.47
2023-06-20T18:47:11.243Z,6.50
2023-06-20T18:49:38.333Z,6.10
2023-06-20T18:52:05.897Z,6.73
2023-06-20T18:54:33.127Z,5.90
2023-06-20T18:57:00.570Z,6.27
2023-06-20T18:59:27.483Z,6.57
2023-06-20T19:01:54.433Z,6.97
2023-06-20T19:04:22.615Z,7.03
2023-06-20T19:06:49.620Z,7.10
2023-06-20T19:09:16.895Z,7.17
2023-06-20T19:11:44.245Z,7.33
2023-06-20T19:14:12.530Z,6.70
2023-06-20T19:16:39.669Z,6.53
2023-06-20T19:19:06.759Z,6.53
2023-06-20T19:21:33.662Z,6.27
2023-06-20T19:24:00.880Z,6.67
2023-06-20T19:26:27.976Z,6.80
2023-06-20T19:28:55.123Z,6.90
2023-06-20T19:31:22.171Z,7.17
2023-06-20T19:33:49.222Z,6.50
2023-06-20T19:36:16.351Z,7.50
2023-06-20T19:38:43.393Z,6.80
2023-06-20T19:41:10.907Z,6.33
2023-06-20T19:43:38.003Z,6.00
2023-06-20T19:46:05.021Z,6.70
2023-06-20T19:48:32.200Z,6.70
2023-06-20T19:51:00.923Z,6.27
2023-06-20T19:53:30.651Z,6.57
2023-06-20T19:55:57.656Z,6.30
2023-06-20T19:58:25.599Z,6.40
2023-06-20T20:00:53.007Z,5.80
2023-06-20T20:03:21.178Z,6.10
2023-06-20T20:05:48.552Z,6.27
2023-06-20T20:08:16.704Z,6.40
2023-06-20T20:10:44.274Z,6.60
2023-06-20T20:13:12.296Z,5.63
2023-06-20T20:15:41.165Z,6.33
2023-06-20T20:18:08.756Z,6.20
2023-06-20T20:20:36.006Z,5.80
2023-06-20T20:23:03.097Z,6.20
2023-06-20T20:25:30.119Z,5.70
2023-06-20T20:27:57.472Z,6.03
2023-06-20T20:30:25.157Z,5.80
2023-06-20T20:32:52.562Z,5.87
2023-06-20T20:35:19.770Z,6.00
2023-06-20T20:37:46.905Z,6.80
2023-06-20T20:40:14.307Z,5.97
2023-06-20T20:42:41.416Z,7.07
2023-06-20T20:45:09.698Z,6.80
2023-06-20T20:47:36.823Z,7.00
2023-06-20T20:50:04.175Z,7.00
2023-06-20T20:52:31.171Z,6.60
2023-06-20T20:54:59.650Z,7.00
2023-06-20T20:57:28.031Z,6.37
2023-06-20T20:59:55.012Z,6.77
2023-06-20T21:02:23.344Z,7.07
2023-06-20T21:04:50.402Z,6.70
2023-06-20T21:07:17.460Z,6.30
2023-06-20T21:09:44.474Z,7.57
2023-06-20T21:12:11.614Z,7.10
2023-06-20T21:14:38.860Z,6.97
2023-06-20T21:17:06.448Z,7.77
2023-06-20T21:19:34.094Z,7.43
2023-06-20T21:22:01.117Z,7.27
2023-06-20T21:24:28.980Z,8.00
2023-06-20T21:26:56.137Z,7.63
2023-06-20T21:29:23.403Z,7.20
2023-06-20T21:31:50.465Z,7.20
2023-06-20T21:34:17.621Z,8.10
2023-06-20T21:36:47.026Z,6.70
2023-06-20T21:39:14.121Z,7.63
2023-06-20T21:41:41.099Z,8.50
2023-06-20T21:44:08.035Z,7.23
2023-06-20T21:46:36.157Z,6.80
2023-06-20T21:49:03.193Z,8.87
2023-06-20T21:51:32.809Z,7.93
2023-06-20T21:53:59.738Z,7.13
2023-06-20T21:56:26.820Z,7.20
2023-06-20T21:58:53.804Z,7.23
2023-06-20T22:01:21.813Z,8.30
2023-06-20T22:03:50.693Z,7.57
2023-06-20T22:06:17.775Z,7.40
2023-06-20T22:08:44.787Z,7.80
2023-06-20T22:11:11.902Z,7.73
2023-06-20T22:13:38.898Z,7.50
2023-06-20T22:16:06.226Z,8.07
2023-06-20T22:18:33.484Z,8.23
2023-06-20T22:21:00.965Z,8.37
2023-06-20T22:23:28.033Z,7.53
2023-06-20T22:25:57.729Z,7.90
2023-06-20T22:28:25.467Z,7.70
2023-06-20T22:30:53.174Z,7.83
2023-06-20T22:33:20.088Z,8.30
2023-06-20T22:35:47.268Z,8.10
2023-06-20T22:38:17.852Z,8.10
2023-06-20T22:40:46.165Z,7.83
2023-06-20T22:43:14.456Z,8.30
2023-06-20T22:45:42.762Z,8.60
2023-06-20T22:48:10.679Z,8.63
2023-06-20T22:50:38.977Z,8.30
2023-06-20T22:53:06.636Z,7.50
2023-06-20T22:55:37.646Z,8.03
2023-06-20T22:58:05.910Z,8.40
2023-06-20T23:00:33.741Z,8.13
2023-06-20T23:03:01.260Z,7.87
2023-06-20T23:05:28.439Z,7.93
2023-06-20T23:07:58.065Z,8.30
2023-06-20T23:10:26.539Z,8.10
2023-06-20T23:12:53.939Z,8.90
2023-06-20T23:15:21.118Z,7.77
2023-06-20T23:17:48.291Z,7.77
2023-06-20T23:20:15.385Z,8.13
2023-06-20T23:22:42.858Z,7.50
2023-06-20T23:25:15.005Z,7.90
2023-06-20T23:27:42.426Z,7.97
2023-06-20T23:30:11.120Z,8.73
2023-06-20T23:32:42.177Z,9.00
2023-06-20T23:35:09.785Z,8.63
2023-06-20T23:37:40.674Z,7.80
2023-06-20T23:40:15.259Z,8.80
2023-06-20T23:42:42.742Z,9.63
2023-06-20T23:45:10.569Z,8.53
2023-06-20T23:47:37.985Z,8.50
2023-06-20T23:50:05.819Z,8.73
2023-06-20T23:52:33.792Z,9.50
2023-06-20T23:55:01.593Z,9.40
2023-06-20T23:57:32.577Z,9.20
